createdAt,value
2023-02-11T00:01:42.635Z,16.50
2023-02-11T00:04:09.043Z,16.49
2023-02-11T00:06:36.125Z,16.48
2023-02-11T00:09:02.554Z,16.46
2023-02-11T00:11:29.060Z,16.44
2023-02-11T00:13:59.040Z,16.43
2023-02-11T00:16:26.045Z,16.43
2023-02-11T00:18:52.531Z,16.41
2023-02-11T00:21:18.917Z,16.39
2023-02-11T00:23:45.952Z,16.37
2023-02-11T00:26:12.310Z,16.37
2023-02-11T00:28:39.658Z,16.35
2023-02-11T00:31:06.032Z,16.35
2023-02-11T00:33:32.384Z,16.34
2023-02-11T00:35:58.720Z,16.32
2023-02-11T00:38:25.348Z,16.31
2023-02-11T00:40:53.789Z,16.30
2023-02-11T00:43:20.001Z,16.29
2023-02-11T00:45:46.348Z,16.28
2023-02-11T00:48:12.886Z,16.27
2023-02-11T00:50:39.280Z,16.27
2023-02-11T00:53:05.980Z,16.26
2023-02-11T00:55:32.263Z,16.26
2023-02-11T00:57:58.962Z,16.26
2023-02-11T01:00:25.286Z,16.25
2023-02-11T01:02:52.331Z,16.25
2023-02-11T01:05:19.023Z,16.25
2023-02-11T01:07:45.515Z,16.25
2023-02-11T01:10:15.436Z,16.23
2023-02-11T01:12:41.753Z,16.22
2023-02-11T01:15:08.459Z,16.23
2023-02-11T01:17:34.751Z,16.21
2023-02-11T01:20:01.543Z,16.21
2023-02-11T01:22:28.513Z,16.20
2023-02-11T01:24:54.879Z,16.18
2023-02-11T01:27:21.426Z,16.18
2023-02-11T01:29:47.695Z,16.17
2023-02-11T01:32:14.216Z,16.16
2023-02-11T01:34:41.021Z,16.15
2023-02-11T01:37:07.343Z,16.17
2023-02-11T01:39:33.868Z,16.18
2023-02-11T01:42:00.900Z,16.20
2023-02-11T01:44:27.161Z,16.26
2023-02-11T01:46:53.522Z,16.36
2023-02-11T01:49:19.972Z,16.47
2023-02-11T01:51:46.297Z,16.58
2023-02-11T01:54:12.645Z,16.68
2023-02-11T01:56:39.023Z,16.78
2023-02-11T02:01:49.673Z,16.95
2023-02-11T02:04:16.234Z,16.99
2023-02-11T02:06:42.817Z,17.02
2023-02-11T02:09:09.437Z,17.05
2023-02-11T02:11:35.924Z,17.07
2023-02-11T02:14:02.222Z,17.07
2023-02-11T02:16:28.583Z,17.09
2023-02-11T02:18:55.082Z,17.08
2023-02-11T02:21:24.512Z,17.05
2023-02-11T02:23:50.876Z,17.02
2023-02-11T02:26:17.194Z,16.96
2023-02-11T02:28:43.577Z,16.93
2023-02-11T02:31:10.605Z,16.89
2023-02-11T02:33:39.173Z,16.88
2023-02-11T02:36:05.901Z,16.87
2023-02-11T02:38:32.149Z,16.86
2023-02-11T02:40:58.392Z,16.84
2023-02-11T02:43:25.004Z,16.82
2023-02-11T02:45:51.724Z,16.81
2023-02-11T02:48:18.919Z,16.78
2023-02-11T02:50:45.226Z,16.75
2023-02-11T02:53:11.540Z,16.71
2023-02-11T02:55:38.201Z,16.68
2023-02-11T02:58:05.469Z,16.64
2023-02-11T03:00:32.560Z,16.62
2023-02-11T03:02:58.903Z,16.59
2023-02-11T03:05:25.993Z,16.56
2023-02-11T03:07:52.369Z,16.54
2023-02-11T03:10:18.671Z,16.52
2023-02-11T03:12:44.928Z,16.48
2023-02-11T03:15:14.295Z,16.47
2023-02-11T03:17:40.667Z,16.44
2023-02-11T03:20:06.997Z,16.42
2023-02-11T03:22:33.926Z,16.39
2023-02-11T03:25:00.322Z,16.36
2023-02-11T03:27:26.905Z,16.34
2023-02-11T03:32:38.007Z,16.31
2023-02-11T03:35:04.421Z,16.29
2023-02-11T03:37:30.862Z,16.28
2023-02-11T03:39:57.183Z,16.26
2023-02-11T03:42:24.023Z,16.25
2023-02-11T03:44:50.358Z,16.24
2023-02-11T03:47:16.786Z,16.23
2023-02-11T03:49:43.041Z,16.23
2023-02-11T03:52:09.311Z,16.22
2023-02-11T03:54:35.594Z,16.20
2023-02-11T03:57:01.878Z,16.19
2023-02-11T03:59:28.302Z,16.19
2023-02-11T04:01:54.594Z,16.17
2023-02-11T04:04:22.106Z,16.18
2023-02-11T04:06:49.007Z,16.17
2023-02-11T04:09:16.061Z,16.16
2023-02-11T04:11:42.376Z,16.15
2023-02-11T04:14:08.667Z,16.15
2023-02-11T04:16:35.792Z,16.14
2023-02-11T04:19:02.165Z,16.14
2023-02-11T04:21:28.469Z,16.12
2023-02-11T04:23:54.779Z,16.12
2023-02-11T04:26:21.141Z,16.11
2023-02-11T04:28:51.353Z,16.10
2023-02-11T04:31:17.882Z,16.09
2023-02-11T04:33:44.440Z,16.09
2023-02-11T04:36:10.728Z,16.12
2023-02-11T04:38:37.050Z,16.15
2023-02-11T04:41:03.495Z,16.25
2023-02-11T04:43:29.839Z,16.36
2023-02-11T04:45:56.169Z,16.46
2023-02-11T04:48:22.613Z,16.60
2023-02-11T04:50:48.967Z,16.73
2023-02-11T04:53:16.076Z,16.89
2023-02-11T04:55:42.874Z,17.03
2023-02-11T04:58:09.402Z,17.14
2023-02-11T05:00:36.328Z,17.23
2023-02-11T05:03:03.412Z,17.30
2023-02-11T05:05:32.924Z,17.34
2023-02-11T05:07:59.393Z,17.37
2023-02-11T05:10:25.714Z,17.38
2023-02-11T05:12:55.277Z,17.38
2023-02-11T05:15:22.115Z,17.39
2023-02-11T05:17:48.535Z,17.38
2023-02-11T05:20:15.009Z,17.36
2023-02-11T05:22:41.381Z,17.36
2023-02-11T05:25:07.797Z,17.34
2023-02-11T05:27:34.421Z,17.32
2023-02-11T05:30:00.872Z,17.32
2023-02-11T05:32:27.454Z,17.31
2023-02-11T05:34:54.138Z,17.31
2023-02-11T05:37:20.619Z,17.30
2023-02-11T05:39:47.089Z,17.29
2023-02-11T05:42:13.361Z,17.26
2023-02-11T05:44:39.664Z,17.24
2023-02-11T05:47:06.070Z,17.22
2023-02-11T05:49:32.363Z,17.19
2023-02-11T05:51:58.674Z,17.18
2023-02-11T05:54:25.138Z,17.17
2023-02-11T05:56:51.596Z,17.14
2023-02-11T05:59:17.994Z,17.13
2023-02-11T06:01:44.484Z,17.11
2023-02-11T06:04:10.814Z,17.09
2023-02-11T06:06:38.033Z,17.10
2023-02-11T06:09:04.427Z,17.09
2023-02-11T06:11:30.803Z,17.08
2023-02-11T06:13:57.198Z,17.08
2023-02-11T06:16:23.609Z,17.09
2023-02-11T06:18:49.996Z,17.08
2023-02-11T06:21:16.320Z,17.08
2023-02-11T06:23:43.124Z,17.09
2023-02-11T06:26:09.453Z,17.09
2023-02-11T06:28:35.824Z,17.09
2023-02-11T06:31:02.278Z,17.11
2023-02-11T06:33:28.765Z,17.09
2023-02-11T06:35:55.370Z,17.10
2023-02-11T06:38:21.685Z,17.11
2023-02-11T06:40:47.961Z,17.11
2023-02-11T06:43:14.363Z,17.10
2023-02-11T06:45:40.665Z,17.12
2023-02-11T06:48:07.397Z,17.12
2023-02-11T06:50:33.759Z,17.13
2023-02-11T06:53:00.062Z,17.13
2023-02-11T06:55:26.500Z,17.12
2023-02-11T06:57:52.851Z,17.12
2023-02-11T07:00:19.230Z,17.12
2023-02-11T07:02:47.945Z,17.12
2023-02-11T07:05:14.332Z,17.11
2023-02-11T07:07:41.025Z,17.10
2023-02-11T07:10:07.338Z,17.10
2023-02-11T07:12:33.629Z,17.10
2023-02-11T07:14:59.926Z,17.11
2023-02-11T07:17:27.178Z,17.12
2023-02-11T07:19:53.461Z,17.11
2023-02-11T07:22:20.526Z,17.12
2023-02-11T07:24:46.867Z,17.12
2023-02-11T07:27:13.200Z,17.13
2023-02-11T07:29:39.534Z,17.13
2023-02-11T07:32:05.907Z,17.13
2023-02-11T07:34:32.276Z,17.14
2023-02-11T07:36:58.654Z,17.14
2023-02-11T07:39:25.246Z,17.14
2023-02-11T07:41:54.821Z,17.14
2023-02-11T07:44:21.399Z,17.13
2023-02-11T07:46:48.613Z,17.13
2023-02-11T07:49:14.879Z,17.14
2023-02-11T07:51:41.271Z,17.15
2023-02-11T07:54:08.139Z,17.15
2023-02-11T07:56:34.531Z,17.14
2023-02-11T07:59:00.986Z,17.13
2023-02-11T08:01:27.744Z,17.14
2023-02-11T08:03:54.001Z,17.12
2023-02-11T08:06:20.343Z,17.13
2023-02-11T08:08:46.952Z,17.12
2023-02-11T08:11:13.233Z,17.11
2023-02-11T08:13:39.561Z,17.11
2023-02-11T08:16:05.907Z,17.10
2023-02-11T08:18:34.520Z,17.11
2023-02-11T08:21:01.407Z,17.09
2023-02-11T08:23:28.233Z,17.07
2023-02-11T08:25:54.474Z,17.07
2023-02-11T08:28:20.793Z,17.06
2023-02-11T08:30:47.134Z,17.04
2023-02-11T08:33:13.738Z,17.04
2023-02-11T08:35:40.455Z,17.03
2023-02-11T08:38:06.785Z,17.01
2023-02-11T08:40:33.663Z,17.00
2023-02-11T08:43:00.492Z,16.99
2023-02-11T08:45:26.888Z,16.97
2023-02-11T08:47:53.149Z,16.94
2023-02-11T08:50:19.537Z,16.94
2023-02-11T08:52:45.887Z,16.94
2023-02-11T08:55:12.487Z,16.92
2023-02-11T08:57:39.428Z,16.91
2023-02-11T09:00:05.669Z,16.89
2023-02-11T09:02:32.153Z,16.88
2023-02-11T09:04:58.459Z,16.88
2023-02-11T09:07:24.735Z,16.86
2023-02-11T09:09:51.030Z,16.85
2023-02-11T09:12:18.010Z,16.84
2023-02-11T09:14:44.489Z,16.84
2023-02-11T09:17:11.427Z,16.83
2023-02-11T09:19:37.856Z,16.82
2023-02-11T09:22:04.272Z,16.82
2023-02-11T09:24:30.812Z,16.81
2023-02-11T09:26:58.007Z,16.82
2023-02-11T09:29:24.305Z,16.82
2023-02-11T09:31:50.775Z,16.83
2023-02-11T09:34:17.091Z,16.84
2023-02-11T09:36:43.389Z,16.85
2023-02-11T09:39:09.685Z,16.84
2023-02-11T09:41:36.190Z,16.85
2023-02-11T09:44:02.468Z,16.87
2023-02-11T09:46:28.877Z,16.86
2023-02-11T09:48:56.294Z,16.88
2023-02-11T09:51:24.550Z,16.88
2023-02-11T09:53:51.779Z,16.88
2023-02-11T09:56:18.582Z,16.89
2023-02-11T09:58:44.892Z,16.91
2023-02-11T10:01:11.311Z,16.92
2023-02-11T10:03:37.738Z,16.92
2023-02-11T10:06:04.174Z,16.96
2023-02-11T10:08:30.810Z,16.98
2023-02-11T10:10:57.120Z,17.01
2023-02-11T10:13:23.492Z,17.02
2023-02-11T10:15:50.791Z,17.04
2023-02-11T10:18:18.319Z,17.06
2023-02-11T10:20:44.662Z,17.09
2023-02-11T10:23:11.549Z,17.09
2023-02-11T10:25:38.062Z,17.12
2023-02-11T10:28:04.679Z,17.13
2023-02-11T10:30:31.116Z,17.14
2023-02-11T10:32:58.579Z,17.16
2023-02-11T10:35:25.168Z,17.16
2023-02-11T10:37:51.602Z,17.17
2023-02-11T10:40:18.048Z,17.16
2023-02-11T10:42:44.524Z,17.17
2023-02-11T10:45:11.100Z,17.17
2023-02-11T10:47:37.576Z,17.16
2023-02-11T10:50:03.900Z,17.16
2023-02-11T10:52:30.330Z,17.15
2023-02-11T10:54:59.378Z,17.15
2023-02-11T10:57:26.023Z,17.15
2023-02-11T10:59:52.432Z,17.14
2023-02-11T11:02:19.319Z,17.16
2023-02-11T11:04:45.931Z,17.14
2023-02-11T11:07:12.301Z,17.15
2023-02-11T11:09:39.042Z,17.14
2023-02-11T11:12:05.322Z,17.14
2023-02-11T11:14:31.721Z,17.15
2023-02-11T11:16:58.419Z,17.08
2023-02-11T11:19:24.879Z,17.16
2023-02-11T11:21:51.345Z,17.15
2023-02-11T11:24:17.636Z,17.13
2023-02-11T11:26:44.056Z,17.13
2023-02-11T11:29:10.976Z,17.12
2023-02-11T11:31:37.640Z,17.12
2023-02-11T11:34:04.087Z,17.11
2023-02-11T11:36:31.242Z,17.11
2023-02-11T11:38:57.660Z,17.11
2023-02-11T11:41:23.998Z,17.10
2023-02-11T11:43:50.880Z,17.10
2023-02-11T11:46:17.267Z,17.10
2023-02-11T11:48:43.858Z,17.10
2023-02-11T11:51:10.999Z,17.10
2023-02-11T11:53:37.436Z,17.08
2023-02-11T11:56:03.767Z,17.09
2023-02-11T11:58:31.242Z,17.09
2023-02-11T12:00:57.578Z,17.08
2023-02-11T12:03:24.131Z,17.09
2023-02-11T12:05:50.586Z,17.08
2023-02-11T12:08:17.021Z,17.08
2023-02-11T12:10:45.372Z,17.08
2023-02-11T12:13:11.712Z,17.08
2023-02-11T12:15:39.330Z,17.07
2023-02-11T12:18:05.595Z,17.08
2023-02-11T12:20:31.942Z,17.07
2023-02-11T12:22:59.109Z,17.07
2023-02-11T12:25:26.489Z,17.08
2023-02-11T12:27:52.819Z,17.09
2023-02-11T12:30:19.925Z,17.12
2023-02-11T12:32:46.522Z,17.14
2023-02-11T12:35:13.229Z,17.18
2023-02-11T12:37:39.503Z,17.21
2023-02-11T12:40:05.862Z,17.23
2023-02-11T12:42:33.257Z,17.26
2023-02-11T12:44:59.733Z,17.29
2023-02-11T12:47:28.904Z,17.31
2023-02-11T12:49:55.270Z,17.32
2023-02-11T12:52:21.706Z,17.33
2023-02-11T12:54:48.351Z,17.35
2023-02-11T12:57:14.642Z,17.34
2023-02-11T12:59:42.011Z,17.35
2023-02-11T13:02:08.813Z,17.36
2023-02-11T13:04:36.433Z,17.37
2023-02-11T13:07:02.800Z,17.37
2023-02-11T13:09:29.122Z,17.36
2023-02-11T13:11:56.256Z,17.36
2023-02-11T13:14:22.863Z,17.35
2023-02-11T13:16:49.368Z,17.35
2023-02-11T13:19:16.017Z,17.35
2023-02-11T13:21:42.572Z,17.34
2023-02-11T13:24:08.857Z,17.33
2023-02-11T13:26:35.173Z,17.33
2023-02-11T13:31:45.658Z,17.32
2023-02-11T13:34:12.124Z,17.31
2023-02-11T13:36:38.481Z,17.31
2023-02-11T13:39:05.097Z,17.28
2023-02-11T13:41:31.545Z,17.28
2023-02-11T13:43:58.601Z,17.26
2023-02-11T13:46:25.049Z,17.27
2023-02-11T13:48:51.447Z,17.27
2023-02-11T13:51:18.268Z,17.26
2023-02-11T13:53:44.796Z,17.27
2023-02-11T13:56:11.061Z,17.29
2023-02-11T13:58:37.455Z,17.29
2023-02-11T14:01:03.876Z,17.31
2023-02-11T14:03:31.027Z,17.31
2023-02-11T14:05:57.387Z,17.30
2023-02-11T14:08:23.731Z,17.30
2023-02-11T14:10:51.486Z,17.29
2023-02-11T14:13:18.890Z,17.30
2023-02-11T14:15:45.958Z,17.29
2023-02-11T14:18:12.404Z,17.29
2023-02-11T14:20:42.222Z,17.28
2023-02-11T14:23:08.875Z,17.27
2023-02-11T14:25:35.327Z,17.27
2023-02-11T14:28:01.822Z,17.27
2023-02-11T14:30:29.000Z,17.27
2023-02-11T14:32:55.328Z,17.27
2023-02-11T14:35:21.648Z,17.28
2023-02-11T14:37:50.656Z,17.27
2023-02-11T14:40:17.993Z,17.26
2023-02-11T14:42:44.320Z,17.26
2023-02-11T14:45:10.775Z,17.26
2023-02-11T14:47:37.880Z,17.25
2023-02-11T14:50:04.358Z,17.25
2023-02-11T14:52:31.359Z,17.24
2023-02-11T14:54:58.849Z,17.25
2023-02-11T14:57:25.171Z,17.27
2023-02-11T14:59:55.169Z,17.27
2023-02-11T15:02:21.787Z,17.28
2023-02-11T15:04:48.750Z,17.30
2023-02-11T15:07:15.130Z,17.33
2023-02-11T15:09:42.151Z,17.35
2023-02-11T15:12:08.843Z,17.36
2023-02-11T15:14:35.307Z,17.37
2023-02-11T15:17:01.650Z,17.37
2023-02-11T15:19:27.948Z,17.38
2023-02-11T15:21:54.259Z,17.38
2023-02-11T15:24:20.586Z,17.38
2023-02-11T15:26:46.965Z,17.40
2023-02-11T15:29:13.884Z,17.41
2023-02-11T15:31:40.292Z,17.40
2023-02-11T15:34:06.739Z,17.41
2023-02-11T15:36:33.602Z,17.41
2023-02-11T15:38:59.970Z,17.41
2023-02-11T15:41:26.342Z,17.42
2023-02-11T15:43:52.632Z,17.41
2023-02-11T15:46:19.275Z,17.40
2023-02-11T15:48:45.684Z,17.39
2023-02-11T15:51:11.997Z,17.39
2023-02-11T15:53:38.613Z,17.39
2023-02-11T15:56:04.951Z,17.37
2023-02-11T15:58:31.287Z,17.37
2023-02-11T16:00:57.599Z,17.28
2023-02-11T16:03:23.886Z,17.36
2023-02-11T16:05:50.225Z,17.35
2023-02-11T16:08:16.607Z,17.34
2023-02-11T16:10:44.774Z,17.33
2023-02-11T16:13:11.013Z,17.33
2023-02-11T16:15:38.297Z,17.36
2023-02-11T16:18:04.650Z,17.35
2023-02-11T16:20:31.017Z,17.38
2023-02-11T16:23:00.552Z,17.39
2023-02-11T16:25:27.502Z,17.40
2023-02-11T16:27:54.521Z,17.41
2023-02-11T16:30:21.096Z,17.44
2023-02-11T16:32:47.394Z,17.45
2023-02-11T16:35:14.075Z,17.47
2023-02-11T16:37:40.880Z,17.49
2023-02-11T16:40:07.938Z,17.42
2023-02-11T16:42:35.440Z,17.52
2023-02-11T16:45:01.749Z,17.54
2023-02-11T16:47:29.182Z,17.56
2023-02-11T16:49:55.524Z,17.60
2023-02-11T16:52:21.823Z,17.63
2023-02-11T16:54:48.132Z,17.66
2023-02-11T16:57:14.488Z,17.68
2023-02-11T16:59:40.974Z,17.70
2023-02-11T17:02:07.340Z,17.72
2023-02-11T17:04:33.781Z,17.75
2023-02-11T17:07:01.004Z,17.76
2023-02-11T17:09:31.023Z,17.79
2023-02-11T17:11:57.641Z,17.80
2023-02-11T17:14:24.022Z,17.83
2023-02-11T17:16:50.346Z,17.83
2023-02-11T17:19:19.969Z,17.85
2023-02-11T17:21:46.354Z,17.87
2023-02-11T17:24:13.023Z,17.87
2023-02-11T17:26:39.369Z,17.87
2023-02-11T17:29:05.614Z,17.88
2023-02-11T17:31:32.329Z,17.91
2023-02-11T17:33:58.729Z,17.91
2023-02-11T17:36:25.318Z,17.91
2023-02-11T17:38:54.453Z,17.91
2023-02-11T17:41:20.704Z,17.92
2023-02-11T17:43:47.023Z,17.93
2023-02-11T17:46:13.552Z,17.94
2023-02-11T17:48:40.817Z,17.93
2023-02-11T17:51:07.389Z,17.93
2023-02-11T17:53:33.897Z,17.94
2023-02-11T17:56:00.284Z,17.96
2023-02-11T17:58:26.896Z,17.96
2023-02-11T18:00:55.736Z,17.94
2023-02-11T18:03:22.323Z,17.94
2023-02-11T18:05:49.386Z,17.94
2023-02-11T18:08:16.076Z,17.94
2023-02-11T18:10:42.760Z,17.93
2023-02-11T18:13:09.297Z,17.92
2023-02-11T18:15:35.941Z,17.91
2023-02-11T18:18:02.311Z,17.89
2023-02-11T18:20:28.696Z,17.89
2023-02-11T18:22:55.184Z,17.88
2023-02-11T18:25:21.623Z,17.87
2023-02-11T18:27:48.195Z,17.86
2023-02-11T18:30:14.552Z,17.86
2023-02-11T18:32:40.851Z,17.85
2023-02-11T18:35:07.957Z,17.86
2023-02-11T18:37:34.423Z,17.86
2023-02-11T18:40:00.831Z,17.87
2023-02-11T18:42:27.606Z,17.87
2023-02-11T18:44:53.936Z,17.87
2023-02-11T18:47:20.296Z,17.88
2023-02-11T18:49:46.793Z,17.88
2023-02-11T18:52:13.310Z,17.88
2023-02-11T18:54:40.489Z,17.90
2023-02-11T18:57:06.882Z,17.89
2023-02-11T18:59:35.388Z,17.90
2023-02-11T19:02:05.463Z,17.91
2023-02-11T19:04:32.078Z,17.92
2023-02-11T19:06:59.500Z,17.93
2023-02-11T19:09:26.067Z,17.93
2023-02-11T19:11:52.450Z,17.93
2023-02-11T19:14:18.795Z,17.92
2023-02-11T19:16:46.198Z,17.93
2023-02-11T19:19:18.692Z,17.93
2023-02-11T19:21:45.273Z,17.93
2023-02-11T19:24:11.586Z,17.93
2023-02-11T19:26:38.981Z,17.92
2023-02-11T19:29:05.689Z,17.91
2023-02-11T19:31:34.059Z,17.90
2023-02-11T19:34:00.494Z,17.89
2023-02-11T19:36:27.283Z,17.88
2023-02-11T19:38:53.540Z,17.87
2023-02-11T19:41:19.924Z,17.86
2023-02-11T19:43:46.610Z,17.84
2023-02-11T19:46:18.081Z,17.84
2023-02-11T19:48:45.799Z,17.85
2023-02-11T19:51:13.387Z,17.83
2023-02-11T19:53:40.210Z,17.84
2023-02-11T19:56:07.052Z,17.84
2023-02-11T19:58:33.707Z,17.85
2023-02-11T20:01:03.216Z,17.86
2023-02-11T20:03:29.796Z,17.87
2023-02-11T20:05:56.717Z,17.87
2023-02-11T20:08:28.566Z,17.88
2023-02-11T20:10:55.140Z,17.90
2023-02-11T20:13:21.800Z,17.91
2023-02-11T20:15:48.457Z,17.93
2023-02-11T20:18:15.159Z,17.94
2023-02-11T20:20:41.771Z,17.95
2023-02-11T20:23:10.280Z,17.96
2023-02-11T20:25:40.225Z,17.96
2023-02-11T20:28:07.011Z,17.95
2023-02-11T20:30:34.172Z,17.95
2023-02-11T20:33:00.971Z,17.96
2023-02-11T20:35:27.383Z,17.95
2023-02-11T20:37:53.809Z,17.95
2023-02-11T20:40:20.275Z,17.94
2023-02-11T20:42:47.232Z,17.94
2023-02-11T20:45:13.671Z,17.92
2023-02-11T20:47:40.609Z,17.93
2023-02-11T20:50:06.983Z,17.92
2023-02-11T20:52:33.397Z,17.91
2023-02-11T20:54:59.726Z,17.89
2023-02-11T20:57:26.522Z,17.89
2023-02-11T20:59:52.931Z,17.87
2023-02-11T21:02:24.680Z,17.86
2023-02-11T21:04:51.247Z,17.86
2023-02-11T21:07:17.634Z,17.86
2023-02-11T21:09:44.578Z,17.84
2023-02-11T21:12:11.025Z,17.84
2023-02-11T21:14:37.563Z,17.82
2023-02-11T21:17:04.212Z,17.81
2023-02-11T21:19:30.639Z,17.81
2023-02-11T21:21:57.120Z,17.81
2023-02-11T21:24:23.723Z,17.80
2023-02-11T21:26:50.194Z,17.79
2023-02-11T21:29:16.612Z,17.79
2023-02-11T21:31:43.722Z,17.80
2023-02-11T21:34:10.451Z,17.80
2023-02-11T21:36:36.807Z,17.80
2023-02-11T21:39:03.132Z,17.79
2023-02-11T21:41:29.481Z,17.80
2023-02-11T21:43:57.246Z,17.79
2023-02-11T21:46:23.543Z,17.80
2023-02-11T21:48:49.900Z,17.79
2023-02-11T21:51:16.357Z,17.79
2023-02-11T21:53:42.657Z,17.79
2023-02-11T21:56:08.942Z,17.78
2023-02-11T21:58:35.344Z,17.78
2023-02-11T22:01:01.972Z,17.78
2023-02-11T22:03:28.396Z,17.78
2023-02-11T22:05:55.778Z,17.77
2023-02-11T22:08:23.141Z,17.77
2023-02-11T22:10:49.590Z,17.75
2023-02-11T22:13:16.669Z,17.75
2023-02-11T22:18:29.006Z,17.73
2023-02-11T22:20:55.318Z,17.72
2023-02-11T22:23:21.599Z,17.72
2023-02-11T22:25:47.878Z,17.71
2023-02-11T22:28:14.240Z,17.69
2023-02-11T22:30:40.735Z,17.69
2023-02-11T22:33:07.833Z,17.68
2023-02-11T22:35:35.118Z,17.66
2023-02-11T22:38:02.027Z,17.66
2023-02-11T22:40:28.432Z,17.66
2023-02-11T22:42:54.756Z,17.65
2023-02-11T22:45:21.107Z,17.63
2023-02-11T22:47:48.040Z,17.63
2023-02-11T22:50:14.354Z,17.62
2023-02-11T22:52:40.746Z,17.62
2023-02-11T22:55:07.059Z,17.60
2023-02-11T22:57:33.470Z,17.60
2023-02-11T22:59:59.729Z,17.58
2023-02-11T23:02:25.968Z,17.57
2023-02-11T23:04:52.355Z,17.56
2023-02-11T23:07:19.197Z,17.55
2023-02-11T23:09:45.626Z,17.54
2023-02-11T23:12:11.956Z,17.53
2023-02-11T23:14:39.193Z,17.53
2023-02-11T23:17:05.563Z,17.52
2023-02-11T23:19:31.872Z,17.51
2023-02-11T23:21:58.578Z,17.50
2023-02-11T23:24:24.939Z,17.49
2023-02-11T23:26:51.303Z,17.49
2023-02-11T23:29:22.625Z,17.48
2023-02-11T23:31:49.574Z,17.47
2023-02-11T23:34:16.123Z,17.46
2023-02-11T23:36:42.446Z,17.45
2023-02-11T23:39:08.749Z,17.45
2023-02-11T23:41:36.206Z,17.43
2023-02-11T23:44:02.498Z,17.43
2023-02-11T23:46:29.035Z,17.42
2023-02-11T23:48:56.001Z,17.42
2023-02-11T23:51:22.387Z,17.40
2023-02-11T23:53:48.872Z,17.40
2023-02-11T23:56:15.596Z,17.40
2023-02-11T23:58:42.066Z,17.39
